Nicoya, Costa Rica
Current Conditions -  °F | °C
As of 8:00 PM on Sunday 19 Oct 2014 (Local Time) from MRLB Reporting Station
Broken Clouds Broken Clouds  
Wind Chill: 77°   Ceiling: 12000
Heat Index: 78°   Visibility: 6mi
Dew Point: 75°   Wind: 3mph
Humidity: 94%   Direction: 150°SSE
Pressure: 29.88"   Gusts: NA
Location:  10.14°N, 85.46°W
Report Text: MRLB 200200Z 15003KT 9999 SCT025 BKN120 25/24 A2988
Loading
Personal Weather Stations






























Interactive Weather Map
Tropical Storm Tracking
New forecast layout! Learn more

10-Day Weather Forecast

Advertisements
Track Severe Weather on mobile